createdAt,value
2023-01-29T00:02:05.943Z,101128.91
2023-01-29T00:05:25.983Z,101130.28
2023-01-29T00:08:30.394Z,101129.25
2023-01-29T00:11:33.439Z,101127.59
2023-01-29T00:14:36.124Z,101139.34
2023-01-29T00:17:39.200Z,101136.00
2023-01-29T00:20:43.965Z,101145.78
2023-01-29T00:23:47.405Z,101135.44
2023-01-29T00:26:50.476Z,101135.31
2023-01-29T00:30:11.573Z,101131.81
2023-01-29T00:33:14.413Z,101133.16
2023-01-29T00:36:20.648Z,101140.41
2023-01-29T00:39:31.447Z,101133.03
2023-01-29T00:42:58.283Z,101143.56
2023-01-29T00:46:01.021Z,101145.28
2023-01-29T00:49:04.741Z,101144.19
2023-01-29T00:52:25.651Z,101144.34
2023-01-29T00:55:28.716Z,101153.59
2023-01-29T00:58:34.599Z,101147.66
2023-01-29T01:01:56.439Z,101156.41
2023-01-29T01:04:59.300Z,101159.69
2023-01-29T01:08:02.446Z,101163.50
2023-01-29T01:11:06.977Z,101156.94
2023-01-29T01:14:10.095Z,101164.00
2023-01-29T01:17:12.872Z,101166.47
2023-01-29T01:20:16.301Z,101158.53
2023-01-29T01:23:20.033Z,101151.69
2023-01-29T01:26:23.162Z,101151.38
2023-01-29T01:29:25.904Z,101157.09
2023-01-29T01:32:29.050Z,101161.69
2023-01-29T01:35:32.127Z,101164.62
2023-01-29T01:38:36.356Z,101163.84
2023-01-29T01:41:39.086Z,101164.59
2023-01-29T01:45:01.503Z,101162.09
2023-01-29T01:48:04.240Z,101159.37
2023-01-29T01:51:07.541Z,101157.19
2023-01-29T01:54:21.638Z,101166.44
2023-01-29T01:57:27.218Z,101162.91
2023-01-29T02:00:29.958Z,101172.97
2023-01-29T02:03:58.659Z,101168.59
2023-01-29T02:07:23.248Z,101175.66
2023-01-29T02:10:27.943Z,101174.62
2023-01-29T02:13:31.514Z,101183.66
2023-01-29T02:16:36.891Z,101180.59
2023-01-29T02:19:57.700Z,101180.84
2023-01-29T02:23:16.201Z,101185.22
2023-01-29T02:26:44.860Z,101185.72
2023-01-29T02:30:00.172Z,101184.31
2023-01-29T02:33:11.983Z,101187.34
2023-01-29T02:36:20.641Z,101184.62
2023-01-29T02:39:42.597Z,101192.56
2023-01-29T02:42:56.111Z,101193.63
2023-01-29T02:46:02.037Z,101197.25
2023-01-29T02:49:32.197Z,101206.25
2023-01-29T02:52:51.073Z,101211.19
2023-01-29T02:56:00.399Z,101211.25
2023-01-29T02:59:17.507Z,101208.25
2023-01-29T03:02:29.350Z,101211.22
2023-01-29T03:06:02.401Z,101210.13
2023-01-29T03:09:13.329Z,101215.03
2023-01-29T03:12:34.222Z,101217.25
2023-01-29T03:15:47.119Z,101220.22
2023-01-29T03:18:58.618Z,101225.94
2023-01-29T03:22:04.805Z,101220.22
2023-01-29T03:25:28.708Z,101226.22
2023-01-29T03:28:51.994Z,101220.78
2023-01-29T03:32:09.681Z,101227.81
2023-01-29T03:35:21.251Z,101229.78
2023-01-29T03:38:29.745Z,101229.53
2023-01-29T03:41:37.182Z,101228.19
2023-01-29T03:45:22.287Z,101235.53
2023-01-29T03:48:40.391Z,101241.84
2023-01-29T03:51:57.847Z,101242.06
2023-01-29T03:55:16.324Z,101234.19
2023-01-29T03:58:46.079Z,101236.91
2023-01-29T04:01:54.611Z,101234.44
2023-01-29T04:05:02.314Z,101231.16
2023-01-29T04:08:15.728Z,101234.94
2023-01-29T04:11:21.778Z,101234.16
2023-01-29T04:14:25.316Z,101227.13
2023-01-29T04:17:35.019Z,101224.34
2023-01-29T04:20:38.491Z,101233.13
2023-01-29T04:23:41.651Z,101238.56
2023-01-29T04:26:53.233Z,101240.22
2023-01-29T04:30:30.927Z,101242.97
2023-01-29T04:33:53.390Z,101238.31
2023-01-29T04:37:27.581Z,101226.91
2023-01-29T04:40:43.452Z,101236.97
2023-01-29T04:43:59.584Z,101217.06
2023-01-29T04:47:06.746Z,101226.37
2023-01-29T04:50:18.831Z,101221.50
2023-01-29T04:53:24.481Z,101229.38
2023-01-29T04:56:51.947Z,101231.31
2023-01-29T05:00:04.149Z,101226.09
2023-01-29T05:03:09.826Z,101222.34
2023-01-29T05:06:14.190Z,101221.78
2023-01-29T05:09:18.140Z,101227.78
2023-01-29T05:12:23.116Z,101223.97
2023-01-29T05:15:43.156Z,101223.97
2023-01-29T05:18:46.904Z,101221.53
2023-01-29T05:21:50.640Z,101221.81
2023-01-29T05:24:53.302Z,101219.94
2023-01-29T05:28:14.216Z,101237.66
2023-01-29T05:31:17.009Z,101238.50
2023-01-29T05:34:20.155Z,101232.19
2023-01-29T05:37:22.972Z,101244.47
2023-01-29T05:40:26.051Z,101239.00
2023-01-29T05:43:28.817Z,101251.53
2023-01-29T05:46:31.857Z,101248.25
2023-01-29T05:49:34.637Z,101246.63
2023-01-29T05:52:37.877Z,101249.88
2023-01-29T05:55:40.836Z,101251.03
2023-01-29T05:58:43.906Z,101254.03
2023-01-29T06:01:46.647Z,101251.84
2023-01-29T06:04:52.398Z,101261.69
2023-01-29T06:07:55.431Z,101262.78
2023-01-29T06:10:58.633Z,101254.28
2023-01-29T06:14:01.375Z,101255.13
2023-01-29T06:17:05.139Z,101262.53
2023-01-29T06:20:08.804Z,101261.94
2023-01-29T06:23:11.850Z,101262.22
2023-01-29T06:26:15.815Z,101274.22
2023-01-29T06:29:18.939Z,101275.31
2023-01-29T06:32:21.562Z,101266.03
2023-01-29T06:35:26.099Z,101273.69
2023-01-29T06:38:29.278Z,101276.44
2023-01-29T06:41:32.347Z,101277.56
2023-01-29T06:44:35.117Z,101275.62
2023-01-29T06:47:38.088Z,101275.38
2023-01-29T06:50:40.764Z,101279.47
2023-01-29T06:53:46.066Z,101279.47
2023-01-29T06:56:49.248Z,101280.06
2023-01-29T06:59:52.361Z,101287.97
2023-01-29T07:02:55.044Z,101288.50
2023-01-29T07:05:58.041Z,101280.31
2023-01-29T07:09:00.995Z,101283.88
2023-01-29T07:12:04.951Z,101283.56
2023-01-29T07:15:08.196Z,101285.78
2023-01-29T07:18:14.219Z,101281.69
2023-01-29T07:21:16.962Z,101282.25
2023-01-29T07:24:20.198Z,101284.97
2023-01-29T07:27:23.002Z,101290.94
2023-01-29T07:30:26.032Z,101293.94
2023-01-29T07:33:28.757Z,101289.59
2023-01-29T07:36:31.739Z,101291.50
2023-01-29T07:39:34.492Z,101293.94
2023-01-29T07:42:40.093Z,101286.59
2023-01-29T07:45:42.812Z,101287.69
2023-01-29T07:48:46.032Z,101291.22
2023-01-29T07:51:48.748Z,101278.69
2023-01-29T07:54:51.841Z,101277.06
2023-01-29T07:57:58.949Z,101272.16
2023-01-29T08:01:07.843Z,101282.78
2023-01-29T08:04:10.903Z,101281.97
2023-01-29T08:07:14.135Z,101285.78
2023-01-29T08:10:17.611Z,101284.72
2023-01-29T08:13:20.665Z,101287.44
2023-01-29T08:16:23.921Z,101283.34
2023-01-29T08:19:26.837Z,101282.53
2023-01-29T08:22:29.974Z,101283.06
2023-01-29T08:25:33.750Z,101296.16
2023-01-29T08:28:38.896Z,101284.69
2023-01-29T08:31:41.647Z,101304.31
2023-01-29T08:34:44.675Z,101315.22
2023-01-29T08:37:59.630Z,101310.56
2023-01-29T08:41:02.804Z,101310.31
2023-01-29T08:44:05.795Z,101323.66
2023-01-29T08:47:08.820Z,101324.50
2023-01-29T08:50:12.000Z,101330.75
2023-01-29T08:53:15.171Z,101336.19
2023-01-29T08:56:17.993Z,101336.75
2023-01-29T08:59:23.008Z,101345.19
2023-01-29T09:02:26.058Z,101332.09
2023-01-29T09:05:29.432Z,101338.63
2023-01-29T09:08:32.214Z,101339.44
2023-01-29T09:11:35.357Z,101351.69
2023-01-29T09:14:38.281Z,101351.44
2023-01-29T09:17:41.483Z,101338.34
2023-01-29T09:20:44.274Z,101350.34
2023-01-29T09:23:47.424Z,101360.19
2023-01-29T09:26:50.254Z,101355.25
2023-01-29T09:29:53.325Z,101352.78
2023-01-29T09:32:56.073Z,101347.31
2023-01-29T09:35:59.243Z,101344.50
2023-01-29T09:39:02.136Z,101355.84
2023-01-29T09:42:27.162Z,101331.72
2023-01-29T09:45:31.874Z,101341.25
2023-01-29T09:48:36.800Z,101349.91
2023-01-29T09:51:49.317Z,101344.16
2023-01-29T09:55:06.688Z,101350.06
2023-01-29T09:58:18.379Z,101340.31
2023-01-29T10:01:33.408Z,101343.03
2023-01-29T10:05:30.889Z,101361.25
2023-01-29T10:08:57.882Z,101358.19
2023-01-29T10:12:37.021Z,101355.53
2023-01-29T10:15:51.879Z,101361.91
2023-01-29T10:19:26.127Z,101359.53
2023-01-29T10:22:37.958Z,101357.25
2023-01-29T10:25:43.412Z,101364.94
2023-01-29T10:28:50.889Z,101362.37
2023-01-29T10:32:05.195Z,101369.19
2023-01-29T10:35:29.962Z,101353.09
2023-01-29T10:38:46.317Z,101351.03
2023-01-29T10:42:05.939Z,101359.94
2023-01-29T10:45:35.279Z,101355.34
2023-01-29T10:49:15.589Z,101344.22
2023-01-29T10:52:51.921Z,101341.94
2023-01-29T10:56:02.481Z,101344.44
2023-01-29T10:59:42.856Z,101340.81
2023-01-29T11:02:49.052Z,101324.09
2023-01-29T11:05:59.722Z,101316.50
2023-01-29T11:09:11.230Z,101312.34
2023-01-29T11:12:18.599Z,101305.53
2023-01-29T11:15:32.708Z,101300.00
2023-01-29T11:18:53.918Z,101293.72
2023-01-29T11:22:00.328Z,101286.47
2023-01-29T11:25:21.200Z,101272.38
2023-01-29T11:28:38.750Z,101260.69
2023-01-29T11:31:41.988Z,101250.56
2023-01-29T11:35:09.905Z,101242.88
2023-01-29T11:38:21.476Z,101255.56
2023-01-29T11:41:25.625Z,101255.44
2023-01-29T11:44:41.560Z,101243.66
2023-01-29T11:47:53.023Z,101232.88
2023-01-29T11:51:00.960Z,101227.59
2023-01-29T11:54:05.716Z,101225.75
2023-01-29T11:57:28.108Z,101216.41
2023-01-29T12:00:35.478Z,101218.25
2023-01-29T12:03:44.978Z,101215.81
2023-01-29T12:06:52.510Z,101210.59
2023-01-29T12:09:58.914Z,101213.03
2023-01-29T12:13:25.886Z,101199.53
2023-01-29T12:16:41.027Z,101210.00
2023-01-29T12:19:54.342Z,101210.94
2023-01-29T12:23:12.210Z,101227.88
2023-01-29T12:26:25.633Z,101212.00
2023-01-29T12:29:33.910Z,101216.31
2023-01-29T12:32:47.028Z,101210.37
2023-01-29T12:36:31.735Z,101209.09
2023-01-29T12:39:34.753Z,101193.53
2023-01-29T12:42:42.212Z,101199.78
2023-01-29T12:45:52.636Z,101184.69
2023-01-29T12:48:59.837Z,101181.63
2023-01-29T12:52:11.743Z,101165.47
2023-01-29T12:55:39.953Z,101159.59
2023-01-29T12:58:47.839Z,101153.84
2023-01-29T13:01:56.107Z,101155.47
2023-01-29T13:05:24.704Z,101149.97
2023-01-29T13:08:37.340Z,101149.41
2023-01-29T13:11:53.871Z,101147.62
2023-01-29T13:14:59.268Z,101149.41
2023-01-29T13:18:29.725Z,101160.94
2023-01-29T13:21:41.050Z,101147.75
2023-01-29T13:24:55.473Z,101128.97
2023-01-29T13:28:17.004Z,101125.59
2023-01-29T13:31:38.086Z,101108.69
2023-01-29T13:34:47.494Z,101124.66
2023-01-29T13:37:55.313Z,101119.59
2023-01-29T13:41:05.681Z,101127.50
2023-01-29T13:44:21.351Z,101122.78
2023-01-29T13:47:32.354Z,101123.31
2023-01-29T13:50:42.088Z,101121.72
2023-01-29T13:53:57.410Z,101111.84
2023-01-29T13:57:01.755Z,101124.16
2023-01-29T14:00:06.632Z,101139.28
2023-01-29T14:03:11.972Z,101133.25
2023-01-29T14:06:40.596Z,101130.25
2023-01-29T14:09:43.963Z,101135.75
2023-01-29T14:12:48.445Z,101138.09
2023-01-29T14:15:57.614Z,101144.09
2023-01-29T14:19:02.792Z,101142.09
2023-01-29T14:22:06.408Z,101147.94
2023-01-29T14:25:20.065Z,101136.81
2023-01-29T14:28:27.295Z,101138.53
2023-01-29T14:31:47.854Z,101142.66
2023-01-29T14:34:59.561Z,101141.87
2023-01-29T14:38:07.516Z,101150.62
2023-01-29T14:41:30.277Z,101158.81
2023-01-29T14:44:45.999Z,101146.91
2023-01-29T14:47:49.061Z,101161.50
2023-01-29T14:50:57.019Z,101149.03
2023-01-29T14:54:16.186Z,101149.41
2023-01-29T14:57:20.596Z,101145.34
2023-01-29T15:00:31.797Z,101146.50
2023-01-29T15:03:50.819Z,101145.72
2023-01-29T15:07:15.921Z,101148.25
2023-01-29T15:10:27.975Z,101143.38
2023-01-29T15:13:39.815Z,101139.03
2023-01-29T15:17:18.916Z,101142.84
2023-01-29T15:20:30.022Z,101138.25
2023-01-29T15:23:35.220Z,101145.87
2023-01-29T15:26:38.824Z,101142.09
2023-01-29T15:29:44.400Z,101139.38
2023-01-29T15:32:49.925Z,101143.44
2023-01-29T15:36:09.217Z,101143.72
2023-01-29T15:39:12.362Z,101143.47
2023-01-29T15:42:24.092Z,101150.00
2023-01-29T15:45:34.296Z,101155.72
2023-01-29T15:48:41.854Z,101161.16
2023-01-29T15:51:48.127Z,101160.34
2023-01-29T15:54:51.880Z,101155.69
2023-01-29T15:57:58.144Z,101167.16
2023-01-29T16:01:02.582Z,101169.03
2023-01-29T16:04:06.543Z,101175.31
2023-01-29T16:07:13.596Z,101164.97
2023-01-29T16:10:24.898Z,101169.88
2023-01-29T16:13:36.296Z,101160.88
2023-01-29T16:16:40.861Z,101176.37
2023-01-29T16:19:44.174Z,101173.41
2023-01-29T16:22:48.369Z,101187.28
2023-01-29T16:25:54.336Z,101178.84
2023-01-29T16:29:09.429Z,101174.22
2023-01-29T16:32:17.558Z,101184.81
2023-01-29T16:35:22.326Z,101180.72
2023-01-29T16:38:36.156Z,101183.44
2023-01-29T16:41:41.722Z,101191.59
2023-01-29T16:45:08.085Z,101195.38
2023-01-29T16:48:33.076Z,101196.47
2023-01-29T16:51:49.626Z,101198.09
2023-01-29T16:55:22.216Z,101201.38
2023-01-29T16:58:28.469Z,101199.19
2023-01-29T17:01:35.213Z,101202.97
2023-01-29T17:04:42.241Z,101199.44
2023-01-29T17:07:48.781Z,101198.91
2023-01-29T17:10:54.041Z,101195.94
2023-01-29T17:13:58.863Z,101195.34
2023-01-29T17:17:07.602Z,101178.22
2023-01-29T17:20:17.304Z,101174.16
2023-01-29T17:23:21.867Z,101173.59
2023-01-29T17:26:31.979Z,101180.69
2023-01-29T17:29:36.256Z,101176.31
2023-01-29T17:32:45.212Z,101183.41
2023-01-29T17:35:51.681Z,101179.59
2023-01-29T17:38:56.678Z,101176.03
2023-01-29T17:42:02.002Z,101172.22
2023-01-29T17:45:07.084Z,101171.41
2023-01-29T17:48:20.853Z,101173.03
2023-01-29T17:51:25.070Z,101168.13
2023-01-29T17:54:29.411Z,101164.84
2023-01-29T17:57:34.268Z,101169.22
2023-01-29T18:00:38.020Z,101165.69
2023-01-29T18:03:42.264Z,101158.09
2023-01-29T18:06:48.645Z,101159.44
2023-01-29T18:09:52.288Z,101147.75
2023-01-29T18:12:57.301Z,101149.37
2023-01-29T18:16:02.497Z,101153.72
2023-01-29T18:19:33.059Z,101141.19
2023-01-29T18:22:37.166Z,101132.78
2023-01-29T18:25:40.714Z,101124.63
2023-01-29T18:28:44.997Z,101127.31
2023-01-29T18:31:50.283Z,101132.19
2023-01-29T18:34:54.880Z,101115.34
2023-01-29T18:37:58.834Z,101114.75
2023-01-29T18:41:11.278Z,101112.06
2023-01-29T18:44:15.098Z,101116.66
2023-01-29T18:47:18.622Z,101113.94
2023-01-29T18:50:24.083Z,101114.19
2023-01-29T18:53:29.111Z,101110.34
2023-01-29T18:56:34.760Z,101109.53
2023-01-29T18:59:39.060Z,101113.84
2023-01-29T19:02:43.658Z,101122.81
2023-01-29T19:05:49.773Z,101123.59
2023-01-29T19:09:02.650Z,101120.63
2023-01-29T19:12:09.021Z,101123.59
2023-01-29T19:15:13.439Z,101114.09
2023-01-29T19:18:17.952Z,101116.81
2023-01-29T19:21:22.768Z,101116.25
2023-01-29T19:24:28.372Z,101117.88
2023-01-29T19:27:32.887Z,101112.97
2023-01-29T19:30:37.809Z,101112.44
2023-01-29T19:33:43.959Z,101120.31
2023-01-29T19:36:48.390Z,101120.59
2023-01-29T19:39:52.536Z,101122.25
2023-01-29T19:43:00.418Z,101117.12
2023-01-29T19:46:04.268Z,101106.50
2023-01-29T19:49:10.958Z,101111.94
2023-01-29T19:52:51.245Z,101111.37
2023-01-29T19:56:08.718Z,101103.25
2023-01-29T19:59:15.548Z,101109.69
2023-01-29T20:02:20.162Z,101106.44
2023-01-29T20:05:24.386Z,101103.75
2023-01-29T20:08:27.696Z,101104.84
2023-01-29T20:11:32.582Z,101113.03
2023-01-29T20:14:36.113Z,101113.03
2023-01-29T20:17:41.984Z,101105.75
2023-01-29T20:20:50.071Z,101109.09
2023-01-29T20:23:54.981Z,101102.59
2023-01-29T20:26:59.627Z,101109.41
2023-01-29T20:30:03.779Z,101103.16
2023-01-29T20:33:08.470Z,101102.34
2023-01-29T20:36:15.385Z,101108.34
2023-01-29T20:39:20.323Z,101102.34
2023-01-29T20:42:27.405Z,101098.56
2023-01-29T20:45:33.297Z,101088.22
2023-01-29T20:48:39.836Z,101081.97
2023-01-29T20:51:45.257Z,101078.66
2023-01-29T20:54:49.600Z,101082.50
2023-01-29T20:58:06.499Z,101080.84
2023-01-29T21:01:13.368Z,101086.22
2023-01-29T21:04:17.547Z,101076.69
2023-01-29T21:07:23.534Z,101080.53
2023-01-29T21:10:27.580Z,101081.66
2023-01-29T21:13:32.616Z,101079.19
2023-01-29T21:16:36.624Z,101082.44
2023-01-29T21:19:43.762Z,101075.62
2023-01-29T21:22:49.449Z,101074.41
2023-01-29T21:25:53.419Z,101076.03
2023-01-29T21:28:56.961Z,101071.03
2023-01-29T21:32:00.861Z,101072.13
2023-01-29T21:35:04.757Z,101072.91
2023-01-29T21:38:08.095Z,101075.66
2023-01-29T21:41:11.308Z,101083.78
2023-01-29T21:44:16.205Z,101093.53
2023-01-29T21:47:19.409Z,101092.72
2023-01-29T21:50:23.314Z,101091.97
2023-01-29T21:53:27.142Z,101088.37
2023-01-29T21:56:30.268Z,101089.06
2023-01-29T21:59:33.117Z,101091.41
2023-01-29T22:02:36.227Z,101094.50
2023-01-29T22:05:39.708Z,101094.03
2023-01-29T22:08:42.466Z,101087.50
2023-01-29T22:11:45.690Z,101095.09
2023-01-29T22:14:48.511Z,101091.84
2023-01-29T22:17:51.587Z,101092.50
2023-01-29T22:20:55.488Z,101079.22
2023-01-29T22:23:58.496Z,101070.50
2023-01-29T22:27:01.251Z,101076.75
2023-01-29T22:30:05.768Z,101074.56
2023-01-29T22:33:10.533Z,101076.22
2023-01-29T22:36:13.631Z,101063.72
2023-01-29T22:39:16.336Z,101058.84
2023-01-29T22:42:20.743Z,101046.87
2023-01-29T22:45:23.492Z,101048.25
2023-01-29T22:48:27.110Z,101040.09
2023-01-29T22:51:29.849Z,101033.84
2023-01-29T22:54:32.823Z,101033.03
2023-01-29T22:57:36.021Z,101026.50
2023-01-29T23:00:39.038Z,101030.31
2023-01-29T23:03:41.791Z,101017.00
2023-01-29T23:06:44.865Z,101018.31
2023-01-29T23:09:47.539Z,101018.31
2023-01-29T23:12:50.654Z,101010.97
2023-01-29T23:15:59.919Z,101002.25
2023-01-29T23:19:03.121Z,101000.25
2023-01-29T23:22:05.863Z,100994.50
2023-01-29T23:25:09.547Z,100980.41
2023-01-29T23:28:12.303Z,100981.22
2023-01-29T23:31:15.947Z,100980.94
2023-01-29T23:34:18.880Z,100972.56
2023-01-29T23:37:21.971Z,100967.62
2023-01-29T23:40:24.672Z,100968.34
2023-01-29T23:43:28.730Z,100969.19
2023-01-29T23:46:32.068Z,100972.16
2023-01-29T23:49:35.500Z,100965.66
2023-01-29T23:52:39.054Z,100957.44
2023-01-29T23:55:42.531Z,100956.53
2023-01-29T23:58:45.320Z,100948.72
